sensor_id;sensor_type;location;lat;lon;timestamp;P1;durP1;ratioP1;P2;durP2;ratioP2
20995;SDS011;10656;52.200;21.052;2023-05-24T00:27:30;9.83;;;8.70;;
20995;SDS011;10656;52.200;21.052;2023-05-24T00:31:48;11.43;;;8.63;;
20995;SDS011;10656;52.200;21.052;2023-05-24T01:02:24;8.97;;;8.07;;
20995;SDS011;10656;52.200;21.052;2023-05-24T02:33:54;8.83;;;7.83;;
20995;SDS011;10656;52.200;21.052;2023-05-24T03:04:22;9.17;;;8.13;;
20995;SDS011;10656;52.200;21.052;2023-05-24T03:49:58;8.40;;;7.60;;
20995;SDS011;10656;52.200;21.052;2023-05-24T04:15:12;8.80;;;7.50;;
20995;SDS011;10656;52.200;21.052;2023-05-24T05:20:41;10.43;;;6.93;;
20995;SDS011;10656;52.200;21.052;2023-05-24T05:41:21;8.90;;;7.07;;
20995;SDS011;10656;52.200;21.052;2023-05-24T05:44:20;8.03;;;6.73;;
20995;SDS011;10656;52.200;21.052;2023-05-24T06:37:19;11.47;;;6.67;;
20995;SDS011;10656;52.200;21.052;2023-05-24T08:13:42;7.13;;;6.20;;
20995;SDS011;10656;52.200;21.052;2023-05-24T08:48:46;8.25;;;5.68;;
20995;SDS011;10656;52.200;21.052;2023-05-24T09:04:15;10.10;;;5.72;;
20995;SDS011;10656;52.200;21.052;2023-05-24T09:29:53;8.25;;;5.53;;
20995;SDS011;10656;52.200;21.052;2023-05-24T09:36:50;6.22;;;5.57;;
20995;SDS011;10656;52.200;21.052;2023-05-24T10:40:32;9.13;;;6.78;;
20995;SDS011;10656;52.200;21.052;2023-05-24T11:06:16;13.75;;;7.28;;
20995;SDS011;10656;52.200;21.052;2023-05-24T11:36:29;9.90;;;6.90;;
20995;SDS011;10656;52.200;21.052;2023-05-24T12:07:09;9.80;;;7.07;;
20995;SDS011;10656;52.200;21.052;2023-05-24T12:42:35;9.35;;;6.32;;
20995;SDS011;10656;52.200;21.052;2023-05-24T13:18:02;9.77;;;5.45;;
20995;SDS011;10656;52.200;21.052;2023-05-24T13:53:29;6.78;;;5.40;;
20995;SDS011;10656;52.200;21.052;2023-05-24T14:18:46;8.15;;;5.90;;
20995;SDS011;10656;52.200;21.052;2023-05-24T14:54:30;7.88;;;5.05;;
20995;SDS011;10656;52.200;21.052;2023-05-24T15:19:59;6.80;;;6.10;;
20995;SDS011;10656;52.200;21.052;2023-05-24T15:24:18;8.13;;;5.78;;
20995;SDS011;10656;52.200;21.052;2023-05-24T15:50:06;6.53;;;5.80;;
20995;SDS011;10656;52.200;21.052;2023-05-24T16:56:08;15.32;;;13.15;;
20995;SDS011;10656;52.200;21.052;2023-05-24T17:21:28;14.80;;;13.40;;
20995;SDS011;10656;52.200;21.052;2023-05-24T17:41:34;15.37;;;13.90;;
20995;SDS011;10656;52.200;21.052;2023-05-24T18:17:25;16.90;;;15.27;;
20995;SDS011;10656;52.200;21.052;2023-05-24T18:47:28;16.53;;;14.70;;
20995;SDS011;10656;52.200;21.052;2023-05-24T19:07:58;18.67;;;15.87;;
20995;SDS011;10656;52.200;21.052;2023-05-24T19:28:23;16.50;;;14.67;;
20995;SDS011;10656;52.200;21.052;2023-05-24T19:53:23;19.10;;;16.57;;
20995;SDS011;10656;52.200;21.052;2023-05-24T20:24:00;19.87;;;17.77;;
20995;SDS011;10656;52.200;21.052;2023-05-24T20:49:16;19.27;;;16.83;;
20995;SDS011;10656;52.200;21.052;2023-05-24T21:19:54;20.67;;;17.63;;
20995;SDS011;10656;52.200;21.052;2023-05-24T21:44:57;19.90;;;17.57;;
20995;SDS011;10656;52.200;21.052;2023-05-24T22:05:15;24.83;;;18.93;;
20995;SDS011;10656;52.200;21.052;2023-05-24T23:16:25;29.37;;;21.47;;
20995;SDS011;10656;52.200;21.052;2023-05-24T23:36:56;31.83;;;22.80;;
20995;SDS011;10656;52.200;21.052;2023-05-24T23:40:38;29.17;;;21.67;;
